Time;durP1;ratioP1;P1;durP2;ratioP2;P2;SDS_P1;SDS_P2;PMS_P1;PMS_P2;Temp;Humidity;BMP_temperature;BMP_pressure;BME280_temperature;BME280_humidity;BME280_pressure;Samples;Min_cycle;Max_cycle;Signal;HPM_P1;HPM_P2
2023/10/19 00:01:56;;;;;;;0.90;0.75;;;;;;;;;;5000989;28;20041;-79
2023/10/19 00:04:22;;;;;;;1.23;0.90;;;;;;;;;;5000712;28;20058;-79
2023/10/19 00:06:53;;;;;;;1.02;0.80;;;;;;;;;;5002090;28;20027;-80
2023/10/19 00:09:20;;;;;;;2.97;1.33;;;;;;;;;;5001043;28;20492;-79
2023/10/19 00:11:47;;;;;;;1.48;1.05;;;;;;;;;;5001563;28;20026;-79
2023/10/19 00:14:17;;;;;;;1.02;0.80;;;;;;;;;;4985917;28;20041;-79
2023/10/19 00:17:00;;;;;;;1.50;1.00;;;;;;;;;;5002346;28;20022;-79
2023/10/19 00:19:28;;;;;;;1.08;0.90;;;;;;;;;;5003140;28;20030;-80
2023/10/19 00:22:08;;;;;;;1.23;1.13;;;;;;;;;;5002018;28;20046;-79
2023/10/19 00:24:34;;;;;;;2.80;1.15;;;;;;;;;;5003255;28;20026;-79
2023/10/19 00:27:10;;;;;;;1.83;1.10;;;;;;;;;;5002199;28;20030;-79
2023/10/19 00:29:47;;;;;;;0.80;0.75;;;;;;;;;;5005045;28;20093;-79
2023/10/19 00:32:14;;;;;;;1.27;1.05;;;;;;;;;;5004428;28;20109;-79
2023/10/19 00:34:43;;;;;;;1.48;1.38;;;;;;;;;;5004676;28;20478;-80
2023/10/19 00:37:10;;;;;;;1.10;1.00;;;;;;;;;;5001542;28;20062;-79
2023/10/19 00:39:47;;;;;;;1.35;1.02;;;;;;;;;;5001921;28;20018;-79
2023/10/19 00:42:15;;;;;;;0.90;0.77;;;;;;;;;;5003090;28;20121;-79
2023/10/19 00:44:49;;;;;;;1.00;0.85;;;;;;;;;;5001674;28;20548;-79
2023/10/19 00:47:18;;;;;;;0.98;0.90;;;;;;;;;;5001322;28;20032;-80
2023/10/19 00:49:46;;;;;;;1.40;1.10;;;;;;;;;;5003771;28;20049;-79
2023/10/19 00:52:19;;;;;;;1.35;0.82;;;;;;;;;;5003144;28;20023;-80
2023/10/19 00:57:13;;;;;;;1.42;1.10;;;;;;;;;;5004653;28;20526;-79
2023/10/19 01:02:17;;;;;;;1.77;1.35;;;;;;;;;;5005471;28;20073;-78
2023/10/19 01:04:44;;;;;;;0.70;0.68;;;;;;;;;;5003106;28;20173;-79
2023/10/19 01:07:27;;;;;;;0.82;0.80;;;;;;;;;;5004686;28;20022;-79
2023/10/19 01:09:59;;;;;;;8.68;1.77;;;;;;;;;;5005453;28;20050;-78
2023/10/19 01:12:25;;;;;;;0.93;0.80;;;;;;;;;;5005374;28;20026;-79
2023/10/19 01:15:13;;;;;;;1.20;1.10;;;;;;;;;;5008615;28;20029;-81
2023/10/19 01:17:40;;;;;;;1.10;0.90;;;;;;;;;;5010749;28;20022;-79
2023/10/19 01:20:18;;;;;;;1.27;0.90;;;;;;;;;;5003169;28;20023;-80
2023/10/19 01:23:20;;;;;;;1.13;0.88;;;;;;;;;;5002248;28;20033;-79
2023/10/19 01:25:58;;;;;;;2.00;1.45;;;;;;;;;;5002210;28;20034;-80
2023/10/19 01:31:07;;;;;;;1.23;0.88;;;;;;;;;;5003827;28;20046;-78
2023/10/19 01:33:36;;;;;;;1.25;0.95;;;;;;;;;;5003073;28;20133;-79
2023/10/19 01:36:24;;;;;;;1.20;1.00;;;;;;;;;;5004925;28;20023;-79
2023/10/19 01:38:55;;;;;;;0.90;0.77;;;;;;;;;;5004639;28;20098;-78
2023/10/19 01:41:22;;;;;;;1.00;0.80;;;;;;;;;;5008054;28;20046;-80
2023/10/19 01:43:49;;;;;;;5.15;1.10;;;;;;;;;;5011339;28;20026;-80
2023/10/19 01:46:22;;;;;;;1.25;1.13;;;;;;;;;;5005409;28;20031;-79
2023/10/19 01:48:53;;;;;;;1.15;0.90;;;;;;;;;;5001640;28;20026;-79
2023/10/19 01:51:20;;;;;;;1.38;1.20;;;;;;;;;;5001661;28;20027;-80
2023/10/19 01:53:47;;;;;;;2.75;1.27;;;;;;;;;;5001126;28;20030;-80
2023/10/19 01:56:14;;;;;;;2.63;1.00;;;;;;;;;;5001253;28;20022;-79
2023/10/19 01:58:41;;;;;;;1.42;0.90;;;;;;;;;;5001881;28;20062;-79
2023/10/19 02:03:43;;;;;;;;;;;;;;;;;;5004664;28;20085;-80
2023/10/19 02:06:26;;;;;;;2.05;1.13;;;;;;;;;;5005929;28;19909;-80
2023/10/19 02:09:00;;;;;;;1.25;0.82;;;;;;;;;;5005895;28;20090;-80
2023/10/19 02:11:27;;;;;;;2.25;1.63;;;;;;;;;;5005634;28;20052;-80
2023/10/19 02:13:55;;;;;;;1.20;0.90;;;;;;;;;;5006360;28;20028;-79
2023/10/19 02:16:32;;;;;;;1.40;1.00;;;;;;;;;;5005597;28;20035;-79
2023/10/19 02:19:01;;;;;;;1.30;1.00;;;;;;;;;;5004628;28;20030;-79
2023/10/19 02:21:30;;;;;;;1.02;0.90;;;;;;;;;;5005324;28;20022;-81
2023/10/19 02:23:57;;;;;;;2.78;1.17;;;;;;;;;;5009460;28;20037;-80
2023/10/19 02:26:26;;;;;;;2.00;1.23;;;;;;;;;;5008708;28;20096;-79
2023/10/19 02:28:52;;;;;;;1.02;0.88;;;;;;;;;;5002396;28;20025;-81
2023/10/19 02:31:23;;;;;;;1.02;0.80;;;;;;;;;;5005143;28;20022;-81
2023/10/19 02:33:58;;;;;;;0.90;0.80;;;;;;;;;;5011145;28;20029;-80
2023/10/19 02:36:28;;;;;;;1.10;0.90;;;;;;;;;;5009562;28;20037;-81
2023/10/19 02:38:54;;;;;;;1.15;0.95;;;;;;;;;;5008269;28;20051;-80
2023/10/19 02:41:20;;;;;;;1.13;1.02;;;;;;;;;;5008084;28;20024;-78
2023/10/19 02:44:00;;;;;;;1.65;1.10;;;;;;;;;;5007740;28;20046;-80
2023/10/19 02:46:27;;;;;;;2.97;1.50;;;;;;;;;;5006720;28;20026;-78
2023/10/19 02:48:53;;;;;;;1.05;0.85;;;;;;;;;;5001596;28;20034;-80
2023/10/19 02:51:19;;;;;;;1.65;1.15;;;;;;;;;;5005788;28;20032;-79
2023/10/19 02:53:45;;;;;;;1.33;0.90;;;;;;;;;;5005063;28;20033;-79
2023/10/19 02:56:12;;;;;;;1.30;0.88;;;;;;;;;;5004979;28;20112;-79
2023/10/19 02:58:42;;;;;;;1.52;1.10;;;;;;;;;;5004608;28;20500;-79
2023/10/19 03:01:19;;;;;;;1.30;1.13;;;;;;;;;;5004429;28;20025;-80
2023/10/19 03:03:46;;;;;;;0.73;0.70;;;;;;;;;;5004776;28;20026;-80
2023/10/19 03:06:12;;;;;;;0.82;0.80;;;;;;;;;;5004270;28;20025;-79
2023/10/19 03:08:38;;;;;;;1.25;0.90;;;;;;;;;;5003944;28;20034;-80
2023/10/19 03:11:04;;;;;;;2.03;1.00;;;;;;;;;;5005100;28;20022;-79
2023/10/19 03:13:34;;;;;;;1.55;1.23;;;;;;;;;;5005445;28;20026;-78
2023/10/19 03:16:07;;;;;;;2.55;1.48;;;;;;;;;;5004645;28;20018;-78
2023/10/19 03:18:33;;;;;;;1.10;1.00;;;;;;;;;;5005195;28;20393;-80
2023/10/19 03:20:59;;;;;;;1.08;0.98;;;;;;;;;;5005256;28;20024;-79
2023/10/19 03:23:28;;;;;;;1.05;0.85;;;;;;;;;;5006245;28;20030;-78
2023/10/19 03:26:48;;;;;;;1.42;1.13;;;;;;;;;;5006147;28;20029;-78
2023/10/19 03:28:42;;;;;;;0.95;0.80;;;;;;;;;;5010011;28;20462;-79
2023/10/19 03:31:13;;;;;;;0.88;0.77;;;;;;;;;;5005720;28;20080;-79
2023/10/19 03:33:40;;;;;;;0.85;0.73;;;;;;;;;;5006221;28;20049;-79
2023/10/19 03:36:12;;;;;;;1.50;1.02;;;;;;;;;;5003385;28;20022;-79
2023/10/19 03:38:40;;;;;;;0.80;0.77;;;;;;;;;;5005470;28;20034;-79
2023/10/19 03:41:07;;;;;;;1.00;0.80;;;;;;;;;;5006176;28;20025;-79
2023/10/19 03:43:34;;;;;;;1.00;0.90;;;;;;;;;;5023994;28;20085;-79
2023/10/19 03:46:06;;;;;;;1.52;1.10;;;;;;;;;;5006374;28;20054;-80
2023/10/19 03:48:38;;;;;;;1.73;1.35;;;;;;;;;;5007189;28;20523;-79
2023/10/19 03:51:05;;;;;;;2.78;1.52;;;;;;;;;;5008808;28;20022;-78
2023/10/19 03:53:32;;;;;;;0.95;0.77;;;;;;;;;;5009439;28;20448;-79
2023/10/19 03:55:58;;;;;;;1.63;1.02;;;;;;;;;;5009154;28;20026;-79
2023/10/19 03:58:29;;;;;;;1.50;0.90;;;;;;;;;;5027280;28;20053;-81
2023/10/19 04:01:01;;;;;;;1.20;0.95;;;;;;;;;;5010297;28;20018;-80
2023/10/19 04:03:30;;;;;;;1.77;1.17;;;;;;;;;;5012419;28;20089;-79
2023/10/19 04:06:00;;;;;;;5.60;1.48;;;;;;;;;;5009417;28;20112;-80
2023/10/19 04:08:26;;;;;;;1.92;1.33;;;;;;;;;;5009433;28;20037;-78
2023/10/19 04:13:38;;;;;;;2.03;1.25;;;;;;;;;;5028307;28;20044;-80
2023/10/19 04:16:10;;;;;;;2.47;1.85;;;;;;;;;;5013971;28;20022;-81
2023/10/19 04:18:38;;;;;;;2.63;1.92;;;;;;;;;;5009273;28;20057;-79
2023/10/19 04:21:04;;;;;;;0.90;0.70;;;;;;;;;;5024026;28;20021;-79
2023/10/19 04:23:34;;;;;;;1.25;1.15;;;;;;;;;;5006366;28;20417;-80
2023/10/19 04:26:05;;;;;;;1.45;1.20;;;;;;;;;;5007105;28;20032;-80
2023/10/19 04:28:38;;;;;;;3.63;1.33;;;;;;;;;;5007002;28;20041;-78
2023/10/19 04:31:06;;;;;;;1.27;0.95;;;;;;;;;;5024352;28;20022;-79
2023/10/19 04:33:34;;;;;;;1.58;1.15;;;;;;;;;;5006310;28;20041;-79
2023/10/19 04:36:00;;;;;;;1.35;1.08;;;;;;;;;;5005497;28;20050;-79
2023/10/19 04:38:33;;;;;;;1.58;1.10;;;;;;;;;;5003770;28;20386;-80
2023/10/19 04:41:09;;;;;;;0.90;0.75;;;;;;;;;;5005215;28;20034;-78
2023/10/19 04:43:39;;;;;;;1.67;1.00;;;;;;;;;;5005667;28;20037;-78
2023/10/19 04:46:12;;;;;;;1.55;1.15;;;;;;;;;;5005205;28;20029;-79
2023/10/19 04:48:44;;;;;;;3.00;1.40;;;;;;;;;;5008034;28;20093;-80
2023/10/19 04:51:11;;;;;;;3.90;1.50;;;;;;;;;;5010003;28;20022;-80
2023/10/19 04:53:38;;;;;;;1.90;1.35;;;;;;;;;;5012341;28;20057;-80
2023/10/19 04:56:12;;;;;;;1.10;0.90;;;;;;;;;;5006731;28;20022;-78
2023/10/19 04:58:38;;;;;;;1.08;0.98;;;;;;;;;;5005704;28;20030;-79
2023/10/19 05:01:05;;;;;;;1.67;1.02;;;;;;;;;;5006212;28;20026;-79
2023/10/19 05:03:32;;;;;;;1.35;0.98;;;;;;;;;;5028069;28;20437;-81
2023/10/19 05:05:58;;;;;;;0.90;0.80;;;;;;;;;;5011986;28;20018;-81
2023/10/19 05:08:25;;;;;;;0.70;0.68;;;;;;;;;;5011225;28;20477;-81
2023/10/19 05:10:55;;;;;;;1.10;0.93;;;;;;;;;;5009811;28;20025;-79
2023/10/19 05:13:25;;;;;;;1.30;1.17;;;;;;;;;;5005174;28;20034;-79
2023/10/19 05:15:53;;;;;;;1.65;1.10;;;;;;;;;;5004700;28;20082;-80
2023/10/19 05:18:20;;;;;;;2.75;1.58;;;;;;;;;;5005018;28;20049;-79
2023/10/19 05:20:46;;;;;;;1.80;0.93;;;;;;;;;;5006628;28;20022;-79
2023/10/19 05:23:15;;;;;;;1.23;1.00;;;;;;;;;;5002316;28;20064;-78
2023/10/19 05:25:41;;;;;;;1.38;1.23;;;;;;;;;;5001362;28;20065;-78
2023/10/19 05:28:08;;;;;;;1.13;0.88;;;;;;;;;;5002429;28;20026;-78
2023/10/19 05:30:34;;;;;;;1.73;1.38;;;;;;;;;;5000700;28;20493;-78
2023/10/19 05:33:03;;;;;;;2.28;1.52;;;;;;;;;;5001333;28;20030;-79
2023/10/19 05:35:31;;;;;;;1.35;1.15;;;;;;;;;;5019724;28;20026;-80
2023/10/19 05:37:57;;;;;;;2.78;1.40;;;;;;;;;;5002117;28;20029;-79
2023/10/19 05:40:29;;;;;;;1.23;0.88;;;;;;;;;;5018339;28;20381;-78
2023/10/19 05:42:55;;;;;;;3.60;1.38;;;;;;;;;;5000856;28;20032;-80
2023/10/19 05:45:21;;;;;;;5.90;1.40;;;;;;;;;;5001512;28;20410;-79
2023/10/19 05:47:47;;;;;;;2.70;1.33;;;;;;;;;;5001498;28;20026;-78
2023/10/19 05:50:16;;;;;;;1.33;1.00;;;;;;;;;;5001689;28;20386;-81
2023/10/19 05:52:43;;;;;;;1.73;1.10;;;;;;;;;;4999616;28;20394;-79
2023/10/19 05:55:12;;;;;;;1.67;1.35;;;;;;;;;;5001812;28;20057;-78
2023/10/19 05:57:40;;;;;;;1.77;1.10;;;;;;;;;;5001292;28;20030;-78
2023/10/19 06:00:12;;;;;;;2.15;1.38;;;;;;;;;;5002349;28;20026;-79
2023/10/19 06:02:39;;;;;;;1.75;1.20;;;;;;;;;;5002498;28;20021;-79
2023/10/19 06:05:06;;;;;;;1.45;1.15;;;;;;;;;;5002588;28;20140;-79
2023/10/19 06:07:32;;;;;;;1.83;1.25;;;;;;;;;;5001755;28;20462;-80
2023/10/19 06:10:03;;;;;;;1.83;1.27;;;;;;;;;;5005698;28;20080;-81
2023/10/19 06:12:29;;;;;;;1.63;1.13;;;;;;;;;;5002493;28;20018;-79
2023/10/19 06:14:55;;;;;;;5.00;2.70;;;;;;;;;;4999734;28;20021;-81
2023/10/19 06:17:23;;;;;;;6.65;1.83;;;;;;;;;;5001490;28;20044;-81
2023/10/19 06:19:49;;;;;;;3.28;1.58;;;;;;;;;;5004089;28;20079;-80
2023/10/19 06:22:16;;;;;;;2.33;1.27;;;;;;;;;;5003892;28;20022;-79
2023/10/19 06:24:43;;;;;;;1.50;1.30;;;;;;;;;;5004709;28;20034;-80
2023/10/19 06:27:10;;;;;;;2.28;1.10;;;;;;;;;;5004559;28;20036;-80
2023/10/19 06:29:36;;;;;;;0.93;0.73;;;;;;;;;;5004674;28;20026;-80
2023/10/19 06:32:02;;;;;;;3.88;1.23;;;;;;;;;;5004454;28;20029;-80
2023/10/19 06:34:28;;;;;;;1.95;1.23;;;;;;;;;;5004522;28;20486;-79
2023/10/19 06:36:54;;;;;;;1.88;1.30;;;;;;;;;;5003696;28;20054;-81
2023/10/19 06:39:21;;;;;;;2.45;1.30;;;;;;;;;;5003178;28;20018;-80
2023/10/19 06:41:49;;;;;;;0.98;0.80;;;;;;;;;;5003293;28;20026;-81
2023/10/19 06:44:16;;;;;;;1.63;1.30;;;;;;;;;;5004985;28;20362;-83
2023/10/19 06:46:46;;;;;;;2.53;1.77;;;;;;;;;;5009364;28;20029;-82
2023/10/19 06:49:12;;;;;;;2.20;1.45;;;;;;;;;;5012793;28;20053;-82
2023/10/19 06:51:38;;;;;;;1.90;1.10;;;;;;;;;;5003383;28;20036;-80
2023/10/19 06:54:05;;;;;;;2.60;1.80;;;;;;;;;;5003929;28;20125;-79
2023/10/19 06:56:32;;;;;;;1.40;1.10;;;;;;;;;;5000396;28;20524;-80
2023/10/19 06:58:59;;;;;;;2.10;1.15;;;;;;;;;;5000643;28;20033;-80
2023/10/19 07:01:29;;;;;;;1.73;1.40;;;;;;;;;;5002139;28;20455;-80
2023/10/19 07:03:56;;;;;;;1.10;0.98;;;;;;;;;;4997233;28;20054;-80
2023/10/19 07:06:22;;;;;;;2.85;1.15;;;;;;;;;;4995504;28;20026;-79
2023/10/19 07:08:48;;;;;;;2.80;1.30;;;;;;;;;;4996647;28;20038;-81
2023/10/19 07:11:14;;;;;;;2.38;1.67;;;;;;;;;;4996124;28;20109;-79
2023/10/19 07:13:41;;;;;;;1.75;1.15;;;;;;;;;;4996862;28;20054;-80
2023/10/19 07:16:09;;;;;;;1.65;1.15;;;;;;;;;;4995374;28;20470;-80
2023/10/19 07:18:36;;;;;;;3.00;1.75;;;;;;;;;;4995532;28;20019;-81
2023/10/19 07:21:03;;;;;;;1.92;1.38;;;;;;;;;;4998896;28;20371;-79
2023/10/19 07:23:29;;;;;;;1.38;0.95;;;;;;;;;;4998414;28;20066;-79
2023/10/19 07:25:56;;;;;;;2.30;1.20;;;;;;;;;;4979765;28;20380;-79
2023/10/19 07:28:32;;;;;;;1.27;0.98;;;;;;;;;;4959273;28;20110;-82
2023/10/19 07:30:59;;;;;;;2.92;1.23;;;;;;;;;;4960100;29;20034;-80
2023/10/19 07:33:26;;;;;;;1.70;1.08;;;;;;;;;;4959983;28;20468;-81
2023/10/19 07:35:54;;;;;;;1.48;1.10;;;;;;;;;;4964443;28;20057;-79
2023/10/19 07:38:22;;;;;;;2.05;1.55;;;;;;;;;;4999831;28;20022;-83
2023/10/19 07:40:48;;;;;;;1.77;1.00;;;;;;;;;;5002015;28;20462;-82
2023/10/19 07:43:14;;;;;;;1.42;1.02;;;;;;;;;;5000376;28;20023;-81
2023/10/19 07:45:42;;;;;;;1.00;0.80;;;;;;;;;;4999206;28;20030;-81
2023/10/19 07:48:11;;;;;;;1.58;1.05;;;;;;;;;;4998540;28;20084;-80
2023/10/19 07:50:40;;;;;;;0.95;0.75;;;;;;;;;;4999616;28;20073;-80
2023/10/19 07:53:06;;;;;;;1.00;0.80;;;;;;;;;;4999224;28;20497;-79
2023/10/19 07:55:33;;;;;;;1.20;0.90;;;;;;;;;;5000901;28;20117;-82
2023/10/19 07:58:06;;;;;;;1.35;1.10;;;;;;;;;;5002676;28;20041;-82
2023/10/19 08:00:35;;;;;;;1.13;0.82;;;;;;;;;;5004606;28;20094;-83
2023/10/19 08:03:05;;;;;;;1.42;0.98;;;;;;;;;;5001492;28;20030;-78
2023/10/19 08:05:31;;;;;;;3.85;1.40;;;;;;;;;;4999909;28;20052;-83
2023/10/19 08:08:00;;;;;;;1.60;1.30;;;;;;;;;;4975858;28;20062;-79
2023/10/19 08:10:26;;;;;;;2.40;1.27;;;;;;;;;;4974371;28;20430;-79
2023/10/19 08:12:53;;;;;;;4.45;1.85;;;;;;;;;;4995943;28;20026;-82
2023/10/19 08:15:20;;;;;;;1.67;1.10;;;;;;;;;;5000041;28;20042;-82
2023/10/19 08:17:48;;;;;;;1.40;1.00;;;;;;;;;;5000327;28;20026;-82
2023/10/19 08:20:24;;;;;;;2.28;1.00;;;;;;;;;;5002341;28;20030;-83
2023/10/19 08:22:56;;;;;;;1.27;0.93;;;;;;;;;;5002295;28;20026;-84
2023/10/19 08:25:23;;;;;;;1.27;1.10;;;;;;;;;;5002598;28;20022;-85
2023/10/19 08:27:56;;;;;;;4.10;1.50;;;;;;;;;;5003343;28;20038;-85
2023/10/19 08:30:26;;;;;;;1.27;1.00;;;;;;;;;;5010707;28;20470;-83
2023/10/19 08:32:53;;;;;;;1.67;1.45;;;;;;;;;;5004433;28;20026;-82
2023/10/19 08:35:24;;;;;;;1.45;1.17;;;;;;;;;;4999951;28;20042;-81
2023/10/19 08:37:50;;;;;;;0.75;0.70;;;;;;;;;;4999906;28;20022;-84
2023/10/19 08:40:17;;;;;;;1.42;1.25;;;;;;;;;;4999319;28;20029;-86
2023/10/19 08:42:45;;;;;;;2.13;0.90;;;;;;;;;;4999918;28;20026;-82
2023/10/19 08:45:16;;;;;;;1.45;1.08;;;;;;;;;;4998725;28;20418;-80
2023/10/19 08:48:02;;;;;;;1.20;0.90;;;;;;;;;;4997904;28;20029;-79
2023/10/19 08:50:34;;;;;;;0.93;0.73;;;;;;;;;;4998246;28;20022;-85
2023/10/19 08:53:02;;;;;;;;;;;;;;;;;;5001936;28;20044;-84
2023/10/19 08:55:30;;;;;;;1.13;0.98;;;;;;;;;;4997485;28;19916;-85
2023/10/19 08:58:05;;;;;;;1.40;1.23;;;;;;;;;;5002947;28;20022;-82
2023/10/19 09:00:42;;;;;;;2.10;1.08;;;;;;;;;;4999791;28;20027;-80
2023/10/19 09:03:09;;;;;;;1.20;1.00;;;;;;;;;;4997511;28;20030;-79
2023/10/19 09:05:40;;;;;;;0.82;0.80;;;;;;;;;;4997717;28;20085;-77
2023/10/19 09:08:06;;;;;;;0.63;0.63;;;;;;;;;;4997208;28;20053;-81
2023/10/19 09:10:36;;;;;;;1.42;1.10;;;;;;;;;;4997421;28;20046;-79
2023/10/19 09:13:09;;;;;;;0.98;0.70;;;;;;;;;;4997854;28;20529;-79
2023/10/19 09:15:36;;;;;;;0.60;0.60;;;;;;;;;;4998164;28;20109;-79
2023/10/19 09:18:15;;;;;;;1.15;0.90;;;;;;;;;;4999051;28;20018;-80
2023/10/19 09:20:42;;;;;;;0.90;0.80;;;;;;;;;;5003009;28;20018;-81
2023/10/19 09:23:09;;;;;;;1.00;0.80;;;;;;;;;;5001771;28;20018;-80
2023/10/19 09:25:35;;;;;;;0.90;0.77;;;;;;;;;;4997706;28;20034;-79
2023/10/19 09:28:02;;;;;;;0.60;0.60;;;;;;;;;;4999145;28;20104;-80
2023/10/19 09:30:31;;;;;;;1.30;0.70;;;;;;;;;;4996964;28;20026;-81
2023/10/19 09:32:57;;;;;;;0.95;0.80;;;;;;;;;;4997203;28;20015;-80
2023/10/19 09:35:27;;;;;;;0.80;0.80;;;;;;;;;;4998568;28;20029;-80
2023/10/19 09:37:55;;;;;;;0.60;0.60;;;;;;;;;;4998040;28;20027;-81
2023/10/19 09:40:21;;;;;;;0.65;0.60;;;;;;;;;;4995432;28;20046;-79
2023/10/19 09:42:49;;;;;;;0.68;0.68;;;;;;;;;;4998508;28;20034;-79
2023/10/19 09:45:19;;;;;;;0.60;0.60;;;;;;;;;;4998806;28;20363;-78
2023/10/19 09:47:50;;;;;;;0.60;0.60;;;;;;;;;;4998692;28;20433;-80
2023/10/19 09:50:16;;;;;;;1.08;0.95;;;;;;;;;;4999963;28;20023;-81
2023/10/19 09:52:43;;;;;;;0.63;0.63;;;;;;;;;;4997839;28;20116;-79
2023/10/19 09:55:15;;;;;;;0.60;0.60;;;;;;;;;;4998842;28;20034;-79
2023/10/19 09:57:59;;;;;;;0.50;0.50;;;;;;;;;;4998307;28;20019;-78
2023/10/19 10:00:26;;;;;;;0.68;0.68;;;;;;;;;;4998192;28;20170;-79
2023/10/19 10:02:55;;;;;;;0.80;0.80;;;;;;;;;;4997021;28;20037;-78
2023/10/19 10:05:54;;;;;;;0.60;0.60;;;;;;;;;;5002457;28;20050;-77
2023/10/19 10:08:21;;;;;;;1.02;0.90;;;;;;;;;;4948057;28;20051;-79
2023/10/19 10:10:47;;;;;;;0.60;0.60;;;;;;;;;;4958924;29;20031;-78
2023/10/19 10:13:26;;;;;;;0.75;0.70;;;;;;;;;;4940018;29;20027;-78
2023/10/19 10:15:55;;;;;;;0.65;0.65;;;;;;;;;;4939449;29;20032;-78
2023/10/19 10:18:25;;;;;;;0.60;0.60;;;;;;;;;;4939484;29;20035;-79
2023/10/19 10:21:08;;;;;;;0.55;0.55;;;;;;;;;;4940385;29;20027;-78
2023/10/19 10:23:40;;;;;;;0.52;0.52;;;;;;;;;;4938740;29;20039;-78
2023/10/19 10:26:08;;;;;;;0.50;0.50;;;;;;;;;;4939017;29;20027;-81
2023/10/19 10:28:35;;;;;;;0.60;0.60;;;;;;;;;;4942042;29;20042;-77
2023/10/19 10:31:08;;;;;;;0.60;0.60;;;;;;;;;;4939941;29;20036;-77
2023/10/19 10:33:34;;;;;;;;;;;;;;;;;;4940141;29;20066;-78
2023/10/19 10:36:01;;;;;;;0.50;0.50;;;;;;;;;;4941461;29;19906;-79
2023/10/19 10:38:34;;;;;;;0.50;0.50;;;;;;;;;;4942246;29;20377;-78
2023/10/19 10:41:00;;;;;;;0.65;0.65;;;;;;;;;;4942248;29;20047;-79
2023/10/19 10:43:27;;;;;;;0.50;0.50;;;;;;;;;;4961285;28;20044;-78
2023/10/19 10:45:54;;;;;;;0.60;0.60;;;;;;;;;;4997366;28;20013;-79
2023/10/19 10:48:20;;;;;;;0.98;0.70;;;;;;;;;;4986875;28;20027;-79
2023/10/19 10:50:46;;;;;;;0.40;0.40;;;;;;;;;;4982967;28;20445;-78
2023/10/19 10:53:13;;;;;;;0.68;0.68;;;;;;;;;;4984156;28;20034;-79
2023/10/19 10:55:39;;;;;;;0.70;0.70;;;;;;;;;;4988030;28;20110;-79
2023/10/19 10:58:05;;;;;;;0.50;0.50;;;;;;;;;;4989420;28;20470;-79
2023/10/19 11:00:34;;;;;;;0.60;0.60;;;;;;;;;;4988532;28;20084;-79
2023/10/19 11:03:04;;;;;;;0.40;0.40;;;;;;;;;;4987231;28;20031;-77
2023/10/19 11:05:35;;;;;;;0.70;0.70;;;;;;;;;;5003943;28;20045;-78
2023/10/19 11:08:07;;;;;;;0.60;0.60;;;;;;;;;;4986318;28;20029;-77
2023/10/19 11:10:33;;;;;;;;;;;;;;;;;;4986212;28;20022;-78
2023/10/19 11:13:03;;;;;;;0.57;0.57;;;;;;;;;;5003206;28;19932;-77
2023/10/19 11:15:29;;;;;;;0.50;0.50;;;;;;;;;;5014953;28;20033;-78
2023/10/19 11:17:55;;;;;;;0.65;0.65;;;;;;;;;;5007271;28;20022;-77
2023/10/19 11:20:22;;;;;;;0.57;0.57;;;;;;;;;;5006987;28;20018;-77
2023/10/19 11:22:50;;;;;;;0.65;0.65;;;;;;;;;;5007339;28;20520;-78
2023/10/19 11:25:20;;;;;;;0.70;0.65;;;;;;;;;;5006724;28;20060;-77
2023/10/19 11:27:47;;;;;;;0.50;0.50;;;;;;;;;;5009687;28;20026;-79
2023/10/19 11:30:14;;;;;;;0.55;0.55;;;;;;;;;;5009556;28;20378;-78
2023/10/19 11:32:40;;;;;;;0.50;0.50;;;;;;;;;;5008239;28;20466;-77
2023/10/19 11:35:07;;;;;;;0.50;0.50;;;;;;;;;;5007335;28;20030;-80
2023/10/19 11:37:55;;;;;;;0.70;0.70;;;;;;;;;;5006828;28;20116;-77
2023/10/19 11:40:22;;;;;;;0.57;0.57;;;;;;;;;;5007541;28;20094;-78
2023/10/19 11:42:51;;;;;;;0.57;0.57;;;;;;;;;;5008658;28;20097;-78
2023/10/19 11:45:17;;;;;;;0.60;0.60;;;;;;;;;;5007878;28;20040;-78
2023/10/19 11:47:44;;;;;;;0.57;0.57;;;;;;;;;;5007478;28;20018;-78
2023/10/19 11:50:14;;;;;;;0.43;0.43;;;;;;;;;;5006125;28;20374;-80
2023/10/19 11:52:40;;;;;;;0.65;0.65;;;;;;;;;;5007460;28;20041;-81
2023/10/19 11:55:08;;;;;;;0.70;0.70;;;;;;;;;;5011592;28;20481;-80
2023/10/19 11:57:35;;;;;;;0.40;0.40;;;;;;;;;;5005346;28;20068;-79
2023/10/19 12:00:01;;;;;;;0.70;0.70;;;;;;;;;;4994940;28;20374;-81
2023/10/19 12:02:27;;;;;;;0.50;0.50;;;;;;;;;;4960210;28;20106;-78
2023/10/19 12:04:53;;;;;;;0.70;0.70;;;;;;;;;;4959553;28;20121;-80
2023/10/19 12:07:19;;;;;;;0.57;0.55;;;;;;;;;;4960930;28;20046;-80
2023/10/19 12:09:46;;;;;;;0.65;0.63;;;;;;;;;;4963534;28;20022;-81
2023/10/19 12:12:13;;;;;;;0.50;0.50;;;;;;;;;;4977373;28;20509;-80
2023/10/19 12:14:39;;;;;;;0.60;0.60;;;;;;;;;;4966135;28;20157;-78
2023/10/19 12:17:07;;;;;;;0.50;0.50;;;;;;;;;;4999965;28;20389;-80
2023/10/19 12:19:33;;;;;;;0.40;0.40;;;;;;;;;;4999664;28;20105;-81
2023/10/19 12:22:02;;;;;;;0.47;0.47;;;;;;;;;;4994336;28;20048;-79
2023/10/19 12:24:29;;;;;;;0.50;0.50;;;;;;;;;;4979315;28;20505;-78
2023/10/19 12:26:56;;;;;;;0.60;0.60;;;;;;;;;;4978743;28;20117;-79
2023/10/19 12:29:22;;;;;;;0.50;0.50;;;;;;;;;;4997113;28;20018;-79
2023/10/19 12:31:48;;;;;;;0.50;0.50;;;;;;;;;;4978821;28;20027;-81
2023/10/19 12:34:16;;;;;;;0.50;0.50;;;;;;;;;;4979637;28;20057;-78
2023/10/19 12:36:46;;;;;;;0.82;0.82;;;;;;;;;;4978983;28;20081;-80
2023/10/19 12:39:34;;;;;;;0.50;0.50;;;;;;;;;;4978929;28;20018;-81
2023/10/19 12:41:58;;;;;;;0.60;0.60;;;;;;;;;;4995786;28;20037;-81
2023/10/19 12:44:24;;;;;;;0.60;0.60;;;;;;;;;;4978879;28;20096;-81
2023/10/19 12:46:52;;;;;;;0.50;0.50;;;;;;;;;;4978688;28;20026;-81
2023/10/19 12:49:25;;;;;;;0.60;0.60;;;;;;;;;;4979179;28;20280;-80
2023/10/19 12:51:51;;;;;;;0.57;0.57;;;;;;;;;;4979040;28;20383;-78
2023/10/19 12:54:18;;;;;;;0.50;0.50;;;;;;;;;;4978421;28;20076;-79
2023/10/19 12:56:44;;;;;;;0.50;0.50;;;;;;;;;;4978535;28;20035;-78
2023/10/19 12:59:11;;;;;;;0.52;0.52;;;;;;;;;;4979273;28;20041;-79
2023/10/19 13:01:37;;;;;;;0.50;0.50;;;;;;;;;;4979265;28;20046;-79
2023/10/19 13:04:16;;;;;;;0.50;0.50;;;;;;;;;;4979045;28;20089;-77
2023/10/19 13:06:42;;;;;;;0.68;0.68;;;;;;;;;;4964744;28;20054;-81
2023/10/19 13:09:09;;;;;;;0.50;0.50;;;;;;;;;;4978600;28;20014;-79
2023/10/19 13:11:35;;;;;;;0.40;0.40;;;;;;;;;;4978448;28;20019;-80
2023/10/19 13:14:01;;;;;;;1.27;1.02;;;;;;;;;;4978262;28;20026;-81
2023/10/19 13:16:28;;;;;;;0.57;0.57;;;;;;;;;;4978042;28;20105;-81
2023/10/19 13:18:54;;;;;;;0.47;0.47;;;;;;;;;;4977755;28;20022;-79
2023/10/19 13:21:27;;;;;;;0.40;0.40;;;;;;;;;;4978524;28;20041;-84
2023/10/19 13:23:54;;;;;;;0.40;0.40;;;;;;;;;;4979034;28;20041;-81
2023/10/19 13:26:20;;;;;;;0.50;0.50;;;;;;;;;;4978049;28;20034;-82
2023/10/19 13:28:48;;;;;;;0.85;0.85;;;;;;;;;;4977957;28;20137;-79
2023/10/19 13:31:15;;;;;;;0.60;0.60;;;;;;;;;;4977847;28;20022;-79
2023/10/19 13:33:45;;;;;;;0.50;0.50;;;;;;;;;;4988874;28;20033;-78
2023/10/19 13:36:12;;;;;;;0.50;0.50;;;;;;;;;;4999410;28;20006;-79
2023/10/19 13:38:38;;;;;;;1.33;1.05;;;;;;;;;;4990007;28;20080;-79
2023/10/19 13:41:09;;;;;;;6.22;1.38;;;;;;;;;;4997806;28;20466;-79
2023/10/19 13:43:36;;;;;;;0.68;0.68;;;;;;;;;;4959134;28;20038;-80
2023/10/19 13:46:04;;;;;;;1.75;1.08;;;;;;;;;;4969285;28;20025;-79
2023/10/19 13:48:30;;;;;;;1.67;1.02;;;;;;;;;;4999148;28;20574;-78
2023/10/19 13:51:15;;;;;;;1.20;0.88;;;;;;;;;;4998609;28;20025;-79
2023/10/19 13:53:41;;;;;;;0.80;0.80;;;;;;;;;;5020261;28;20030;-78
2023/10/19 13:56:09;;;;;;;0.65;0.65;;;;;;;;;;5000491;28;20026;-79
2023/10/19 13:58:35;;;;;;;1.05;0.90;;;;;;;;;;4995156;28;20023;-78
2023/10/19 14:01:03;;;;;;;0.60;0.50;;;;;;;;;;4962362;28;20019;-79
2023/10/19 14:03:30;;;;;;;1.20;0.93;;;;;;;;;;4963034;28;20066;-78
2023/10/19 14:05:56;;;;;;;1.40;1.23;;;;;;;;;;4973464;28;20442;-79
2023/10/19 14:08:23;;;;;;;1.15;1.02;;;;;;;;;;4972218;28;20085;-81
2023/10/19 14:10:49;;;;;;;2.17;1.30;;;;;;;;;;4966717;28;20031;-82
2023/10/19 14:13:15;;;;;;;0.77;0.77;;;;;;;;;;4973548;28;20022;-82
2023/10/19 14:15:42;;;;;;;0.70;0.70;;;;;;;;;;4962172;28;20022;-80
2023/10/19 14:18:08;;;;;;;0.52;0.52;;;;;;;;;;4970459;28;20420;-80
2023/10/19 14:20:35;;;;;;;1.13;0.95;;;;;;;;;;4971450;28;20023;-79
2023/10/19 14:23:04;;;;;;;0.60;0.60;;;;;;;;;;4983067;28;20475;-79
2023/10/19 14:25:30;;;;;;;1.75;1.05;;;;;;;;;;4968305;28;20031;-80
2023/10/19 14:28:00;;;;;;;0.73;0.73;;;;;;;;;;4986546;28;20049;-79
2023/10/19 14:30:31;;;;;;;1.00;0.90;;;;;;;;;;4990272;28;20115;-79
2023/10/19 14:32:57;;;;;;;0.57;0.57;;;;;;;;;;4985265;28;20463;-79
2023/10/19 14:35:25;;;;;;;0.80;0.80;;;;;;;;;;4975109;28;20033;-80
2023/10/19 14:37:54;;;;;;;0.90;0.80;;;;;;;;;;4987415;28;20015;-79
2023/10/19 14:40:27;;;;;;;0.80;0.80;;;;;;;;;;4972536;28;20050;-81
2023/10/19 14:42:54;;;;;;;1.10;0.80;;;;;;;;;;4976246;28;20031;-80
2023/10/19 14:45:25;;;;;;;1.52;0.90;;;;;;;;;;4975620;28;20034;-79
2023/10/19 14:47:52;;;;;;;0.60;0.60;;;;;;;;;;4971818;28;20047;-79
2023/10/19 14:50:19;;;;;;;0.70;0.65;;;;;;;;;;4982412;28;20018;-79
2023/10/19 14:52:50;;;;;;;0.77;0.77;;;;;;;;;;4976852;28;20018;-81
2023/10/19 14:55:16;;;;;;;0.88;0.70;;;;;;;;;;4988254;28;20061;-81
2023/10/19 14:57:44;;;;;;;1.13;1.00;;;;;;;;;;4989653;28;20023;-80
2023/10/19 15:00:15;;;;;;;0.98;0.80;;;;;;;;;;4971300;28;20034;-80
2023/10/19 15:02:47;;;;;;;0.70;0.70;;;;;;;;;;4989708;28;20049;-80
2023/10/19 15:05:15;;;;;;;2.05;1.10;;;;;;;;;;4971249;28;20029;-81
2023/10/19 15:07:43;;;;;;;1.17;1.08;;;;;;;;;;4982271;28;20038;-78